Airport View

Enter AWOS ICAO identifier for current METAR.

ex. KFNL

KFME 080824Z AUTO 32009G22KT 280V350 4SM SCT002 SCT060 10/10 A2965 RMK AO1

8 Apr 2020 08:43

Frequency: 123.925

Other Area AWOS: KBWI - KCGS - KDMH - KNAK

TAF AMD KBWI 080803Z 0808/0912 VRB03KT 6SM -SHRA VCTS SCT010CB BKN060 TEMPO 0808/0809 28015G32KT 3SM TSRA SCT070CB BKN250 FM080900 26005KT P6SM -SHRA VCTS SCT001CB OVC100 WS020/27040KT FM081200 24005KT P6SM SCT120 BKN250 WS020/30045KT FM081600 28010G17KT P6SM FEW045 SCT100 FM082300 31009KT P6SM FEW250 FM090900 13004KT P6SM SCT090 BKN150